^^
Grace C. Lehan Memorial Weather Station Historical Data
Daily Summary for August 9, 2021 Units:  Both    English   Metric
Daily Weekly Monthly Yearly
  High: Low: Average:
Temperature: 80.8 °F /  27.1 °C 70.7 °F /  21.5 °C 74.4 °F /  23.6 °C
Dew Point: 71.2 °F /  21.8 °C 66.4 °F /  19.1 °C 68.9 °F /  20.5 °C
Humidity: 92% 68.6% 83%
Wind Speed: 2.4mph /  3.9km/h - 0.2mph /  0.3km/h
Wind Gust: 9mph /  14.5km/h - -
Wind- - East
Pressure: 30.14 in /  1020.5 hPa 30.07 in /  1018.2 hPa -
Precipitation: 0.01 in /  0.25 mm    
 
 
Tabular Data for August 9, 2021
Time Temperature Dew Point Pressure Wind Wind Speed Wind Gust Humidity Rainfall Rate (Hourly) solar
00:04 73.4 °F /  23 °C 68.3 °F /  20.2 °C 30.07in /  1018.2hPa Calm     84% 0.00in /  0mm 0 W/m2
00:09 73.5 °F /  23.1 °C 68.3 °F /  20.2 °C 30.07in /  1018.2hPa Calm     84% 0.00in /  0mm 0 W/m2
00:14 73.4 °F /  23 °C 68.4 °F /  20.2 °C 30.07in /  1018.2hPa Calm     84.1% 0.00in /  0mm 0 W/m2
00:19 73.4 °F /  23 °C 68.6 °F /  20.3 °C 30.08in /  1018.5hPa Calm     84.8% 0.00in /  0mm 0 W/m2
00:24 73.3 °F /  22.9 °C 68.6 °F /  20.3 °C 30.08in /  1018.5hPa Calm     85% 0.00in /  0mm 0 W/m2
00:29 73.3 °F /  22.9 °C 68.5 °F /  20.3 °C 30.08in /  1018.5hPa Calm     85% 0.00in /  0mm 0 W/m2
00:34 73.2 °F /  22.9 °C 68.4 °F /  20.2 °C 30.08in /  1018.5hPa Calm     84.9% 0.00in /  0mm 0 W/m2
00:39 73.2 °F /  22.9 °C 68 °F /  20 °C 30.08in /  1018.5hPa Calm     84% 0.00in /  0mm 0 W/m2
00:44 73.1 °F /  22.8 °C 67.8 °F /  19.9 °C 30.08in /  1018.5hPa Calm     83.6% 0.00in /  0mm 0 W/m2
00:49 73 °F /  22.8 °C 67.7 °F /  19.8 °C 30.08in /  1018.5hPa Calm     83.4% 0.00in /  0mm 0 W/m2
00:54 73 °F /  22.8 °C 67.5 °F /  19.7 °C 30.09in /  1018.8hPa Calm     83% 0.00in /  0mm 0 W/m2
00:59 73 °F /  22.8 °C 67.6 °F /  19.8 °C 30.08in /  1018.5hPa Calm     83% 0.00in /  0mm 0 W/m2
01:04 73.1 °F /  22.8 °C 67.6 °F /  19.8 °C 30.08in /  1018.5hPa Calm     83% 0.00in /  0mm 0 W/m2
01:09 73 °F /  22.8 °C 67.3 °F /  19.6 °C 30.09in /  1018.8hPa Calm     82.3% 0.00in /  0mm 0 W/m2
01:14 73 °F /  22.8 °C 67.2 °F /  19.6 °C 30.09in /  1018.8hPa Calm     82% 0.00in /  0mm 0 W/m2
01:19 73 °F /  22.8 °C 67.2 °F /  19.6 °C 30.09in /  1018.8hPa Calm     82% 0.00in /  0mm 0 W/m2
01:24 72.9 °F /  22.7 °C 67.1 °F /  19.5 °C 30.09in /  1018.8hPa Calm     82% 0.00in /  0mm 0 W/m2
01:29 72.9 °F /  22.7 °C 67.1 °F /  19.5 °C 30.09in /  1018.8hPa Calm     82% 0.00in /  0mm 0 W/m2
01:34 72.8 °F /  22.7 °C 67 °F /  19.4 °C 30.09in /  1018.8hPa Calm     82% 0.00in /  0mm 0 W/m2
01:39 72.8 °F /  22.7 °C 67 °F /  19.4 °C 30.09in /  1018.8hPa Calm     82% 0.00in /  0mm 0 W/m2
01:44 72.7 °F /  22.6 °C 66.7 °F /  19.3 °C 30.09in /  1018.8hPa Calm     81.5% 0.00in /  0mm 0 W/m2
01:49 72.6 °F /  22.6 °C 66.4 °F /  19.1 °C 30.09in /  1018.8hPa Calm     81% 0.00in /  0mm 0 W/m2
01:54 72.6 °F /  22.6 °C 66.4 °F /  19.1 °C 30.09in /  1018.8hPa Calm     81% 0.00in /  0mm 0 W/m2
01:59 72.5 °F /  22.5 °C 66.6 °F /  19.2 °C 30.09in /  1018.8hPa Calm     81.8% 0.00in /  0mm 0 W/m2
02:04 72.4 °F /  22.4 °C 66.6 °F /  19.2 °C 30.09in /  1018.8hPa Calm   1mph /  1.6km/h 82% 0.00in /  0mm 0 W/m2
02:09 72.4 °F /  22.4 °C 66.6 °F /  19.2 °C 30.09in /  1018.8hPa Calm   1mph /  1.6km/h 82.1% 0.00in /  0mm 0 W/m2
02:14 72.2 °F /  22.3 °C 66.8 °F /  19.3 °C 30.09in /  1018.8hPa Calm   1mph /  1.6km/h 83% 0.00in /  0mm 0 W/m2
02:19 72.2 °F /  22.3 °C 66.8 °F /  19.3 °C 30.09in /  1018.8hPa Calm   1mph /  1.6km/h 83% 0.00in /  0mm 0 W/m2
02:24 72.1 °F /  22.3 °C 66.7 °F /  19.3 °C 30.09in /  1018.8hPa Calm   1mph /  1.6km/h 83% 0.00in /  0mm 0 W/m2
02:29 72.1 °F /  22.3 °C 67 °F /  19.4 °C 30.09in /  1018.8hPa Calm   1mph /  1.6km/h 84% 0.00in /  0mm 0 W/m2
02:34 72.1 °F /  22.3 °C 67 °F /  19.4 °C 30.09in /  1018.8hPa Calm   1mph /  1.6km/h 84.1% 0.00in /  0mm 0 W/m2
02:39 72.1 °F /  22.3 °C 67.3 °F /  19.6 °C 30.09in /  1018.8hPa Calm   1mph /  1.6km/h 85% 0.00in /  0mm 0 W/m2
02:44 72 °F /  22.2 °C 67.3 °F /  19.6 °C 30.09in /  1018.8hPa Calm   1mph /  1.6km/h 85% 0.00in /  0mm 0 W/m2
02:49 72 °F /  22.2 °C 67.6 °F /  19.8 °C 30.09in /  1018.8hPa Calm   1mph /  1.6km/h 85.9% 0.00in /  0mm 0 W/m2
02:54 72 °F /  22.2 °C 67.6 °F /  19.8 °C 30.09in /  1018.8hPa Calm   1mph /  1.6km/h 86% 0.00in /  0mm 0 W/m2
02:59 71.9 °F /  22.2 °C 67.5 °F /  19.7 °C 30.09in /  1018.8hPa Calm   1mph /  1.6km/h 86% 0.00in /  0mm 0 W/m2
03:04 71.9 °F /  22.2 °C 67.6 °F /  19.8 °C 30.09in /  1018.8hPa Calm   1mph /  1.6km/h 86.4% 0.00in /  0mm 0 W/m2
03:09 71.8 °F /  22.1 °C 67.7 °F /  19.8 °C 30.09in /  1018.8hPa Calm     87% 0.00in /  0mm 0 W/m2
03:14 71.7 °F /  22.1 °C 67.6 °F /  19.8 °C 30.09in /  1018.8hPa Calm     87% 0.00in /  0mm 0 W/m2
03:19 71.6 °F /  22 °C 67.5 °F /  19.7 °C 30.09in /  1018.8hPa Calm     87% 0.00in /  0mm 0 W/m2
03:24 71.5 °F /  21.9 °C 67.4 °F /  19.7 °C 30.08in /  1018.5hPa Calm     87% 0.00in /  0mm 0 W/m2
03:29 71.4 °F /  21.9 °C 67.3 °F /  19.6 °C 30.09in /  1018.8hPa Calm     87% 0.00in /  0mm 0 W/m2
03:34 71.3 °F /  21.8 °C 67.5 °F /  19.7 °C 30.09in /  1018.8hPa Calm     87.7% 0.00in /  0mm 0 W/m2
03:39 71.3 °F /  21.8 °C 67.6 °F /  19.8 °C 30.09in /  1018.8hPa Calm     88% 0.00in /  0mm 0 W/m2
03:44 71.3 °F /  21.8 °C 67.5 °F /  19.7 °C 30.08in /  1018.5hPa Calm     88% 0.00in /  0mm 0 W/m2
03:49 71.2 °F /  21.8 °C 67.5 °F /  19.7 °C 30.08in /  1018.5hPa Calm     88% 0.00in /  0mm 0 W/m2
03:54 71.2 °F /  21.8 °C 67.6 °F /  19.8 °C 30.08in /  1018.5hPa Calm     88.4% 0.00in /  0mm 0 W/m2
03:59 71.1 °F /  21.7 °C 67.7 °F /  19.8 °C 30.08in /  1018.5hPa Calm     89% 0.00in /  0mm 0 W/m2
04:00 71.1 °F /  21.7 °C 67.7 °F /  19.8 °C 30.08in /  1018.5hPa Calm     89% 0.00in /  0mm 0 W/m2
04:09 71 °F /  21.7 °C 67.6 °F /  19.8 °C 30.08in /  1018.5hPa WNW 0.1mph /  0.2km/h 2mph /  3.2km/h 89% 0.00in /  0mm 0 W/m2
04:14 71 °F /  21.7 °C 67.6 °F /  19.8 °C 30.08in /  1018.5hPa Calm   2mph /  3.2km/h 89% 0.00in /  0mm 0 W/m2
04:19 71 °F /  21.7 °C 67.6 °F /  19.8 °C 30.09in /  1018.8hPa Calm   2mph /  3.2km/h 89% 0.00in /  0mm 0 W/m2
04:24 71 °F /  21.7 °C 67.6 °F /  19.8 °C 30.09in /  1018.8hPa Calm   2mph /  3.2km/h 89% 0.00in /  0mm 0 W/m2
04:29 71 °F /  21.7 °C 67.6 °F /  19.8 °C 30.09in /  1018.8hPa Calm   2mph /  3.2km/h 89% 0.00in /  0mm 0 W/m2
04:34 71 °F /  21.7 °C 67.6 °F /  19.8 °C 30.09in /  1018.8hPa Calm   2mph /  3.2km/h 89% 0.00in /  0mm 0 W/m2
04:39 71 °F /  21.7 °C 67.6 °F /  19.8 °C 30.09in /  1018.8hPa Calm     89% 0.00in /  0mm 0 W/m2
04:44 71 °F /  21.7 °C 67.6 °F /  19.8 °C 30.09in /  1018.8hPa Calm     89% 0.00in /  0mm 0 W/m2
04:49 71 °F /  21.7 °C 67.6 °F /  19.8 °C 30.09in /  1018.8hPa Calm     89% 0.00in /  0mm 0 W/m2
04:54 70.9 °F /  21.6 °C 67.5 °F /  19.7 °C 30.09in /  1018.8hPa Calm     89% 0.00in /  0mm 0 W/m2
04:59 70.9 °F /  21.6 °C 67.5 °F /  19.7 °C 30.10in /  1019.2hPa Calm     89% 0.00in /  0mm 0 W/m2
05:04 70.8 °F /  21.6 °C 67.4 °F /  19.7 °C 30.10in /  1019.2hPa Calm     89% 0.00in /  0mm 0 W/m2
05:09 70.8 °F /  21.6 °C 67.4 °F /  19.7 °C 30.10in /  1019.2hPa Calm     89% 0.00in /  0mm 0 W/m2
05:14 70.7 °F /  21.5 °C 67.3 °F /  19.6 °C 30.10in /  1019.2hPa Calm     89% 0.00in /  0mm 0 W/m2
05:19 70.7 °F /  21.5 °C 67.4 °F /  19.7 °C 30.09in /  1018.8hPa Calm     89.1% 0.00in /  0mm 0 W/m2
05:24 70.8 °F /  21.6 °C 67.6 °F /  19.8 °C 30.10in /  1019.2hPa Calm     89.7% 0.00in /  0mm 0 W/m2
05:29 70.7 °F /  21.5 °C 67.3 °F /  19.6 °C 30.10in /  1019.2hPa Calm     89.1% 0.00in /  0mm 0 W/m2
05:34 70.7 °F /  21.5 °C 67.3 °F /  19.6 °C 30.10in /  1019.2hPa Calm     89% 0.00in /  0mm 0 W/m2
05:39 70.7 °F /  21.5 °C 67.3 °F /  19.6 °C 30.10in /  1019.2hPa Calm     89% 0.00in /  0mm 0 W/m2
05:44 70.7 °F /  21.5 °C 67.3 °F /  19.6 °C 30.10in /  1019.2hPa Calm     89% 0.00in /  0mm 0 W/m2
05:49 70.7 °F /  21.5 °C 67.3 °F /  19.6 °C 30.10in /  1019.2hPa Calm     89% 0.00in /  0mm 0 W/m2
05:54 70.7 °F /  21.5 °C 67.3 °F /  19.6 °C 30.10in /  1019.2hPa Calm     89% 0.00in /  0mm 0 W/m2
05:59 70.7 °F /  21.5 °C 67.2 °F /  19.6 °C 30.10in /  1019.2hPa Calm     88.6% 0.00in /  0mm 0 W/m2
06:04 70.7 °F /  21.5 °C 67 °F /  19.4 °C 30.10in /  1019.2hPa Calm     88% 0.00in /  0mm 0 W/m2
06:09 70.7 °F /  21.5 °C 67 °F /  19.4 °C 30.10in /  1019.2hPa Calm     88.1% 0.00in /  0mm 5 W/m2
06:14 70.8 °F /  21.6 °C 67.4 °F /  19.7 °C 30.10in /  1019.2hPa Calm     89% 0.00in /  0mm 5 W/m2
06:19 70.8 °F /  21.6 °C 67.4 °F /  19.7 °C 30.10in /  1019.2hPa Calm     89% 0.00in /  0mm 9 W/m2
06:24 70.8 °F /  21.6 °C 67.4 °F /  19.7 °C 30.11in /  1019.5hPa Calm     89% 0.00in /  0mm 12 W/m2
06:29 70.8 °F /  21.6 °C 67.4 °F /  19.7 °C 30.11in /  1019.5hPa Calm     89% 0.00in /  0mm 23 W/m2
06:34 70.8 °F /  21.6 °C 67.4 °F /  19.7 °C 30.11in /  1019.5hPa Calm     89% 0.00in /  0mm 26 W/m2
06:39 70.8 °F /  21.6 °C 67.4 °F /  19.7 °C 30.11in /  1019.5hPa WNW 0.1mph /  0.2km/h 2mph /  3.2km/h 89% 0.00in /  0mm 25 W/m2
06:44 70.8 °F /  21.6 °C 67.4 °F /  19.7 °C 30.11in /  1019.5hPa Calm   2mph /  3.2km/h 89% 0.00in /  0mm 19 W/m2
06:49 70.8 °F /  21.6 °C 67.2 °F /  19.6 °C 30.11in /  1019.5hPa Calm   2mph /  3.2km/h 88.3% 0.00in /  0mm 26 W/m2
06:54 70.9 °F /  21.6 °C 67.1 °F /  19.5 °C 30.11in /  1019.5hPa Calm   2mph /  3.2km/h 88% 0.00in /  0mm 26 W/m2
06:59 70.9 °F /  21.6 °C 67.2 °F /  19.6 °C 30.11in /  1019.5hPa Calm   2mph /  3.2km/h 88% 0.00in /  0mm 19 W/m2
07:04 70.9 °F /  21.6 °C 67.2 °F /  19.6 °C 30.11in /  1019.5hPa Calm   2mph /  3.2km/h 88% 0.00in /  0mm 14 W/m2
07:09 71 °F /  21.7 °C 67.3 °F /  19.6 °C 30.12in /  1019.9hPa Calm   1mph /  1.6km/h 88% 0.00in /  0mm 18 W/m2
07:14 71 °F /  21.7 °C 67.3 °F /  19.6 °C 30.12in /  1019.9hPa Calm   1mph /  1.6km/h 88% 0.00in /  0mm 21 W/m2
07:19 71 °F /  21.7 °C 67.3 °F /  19.6 °C 30.12in /  1019.9hPa Calm   1mph /  1.6km/h 88% 0.00in /  0mm 33 W/m2
07:24 71.1 °F /  21.7 °C 67.6 °F /  19.8 °C 30.12in /  1019.9hPa Calm   1mph /  1.6km/h 88.7% 0.00in /  0mm 37 W/m2
07:29 71.2 °F /  21.8 °C 67.8 °F /  19.9 °C 30.12in /  1019.9hPa Calm   1mph /  1.6km/h 89% 0.00in /  0mm 49 W/m2
07:34 71.2 °F /  21.8 °C 67.8 °F /  19.9 °C 30.12in /  1019.9hPa Calm   1mph /  1.6km/h 89% 0.00in /  0mm 62 W/m2
07:39 71.3 °F /  21.8 °C 67.8 °F /  19.9 °C 30.12in /  1019.9hPa WNW 0.2mph /  0.3km/h 2mph /  3.2km/h 89% 0.00in /  0mm 60 W/m2
07:44 71.3 °F /  21.8 °C 67.9 °F /  19.9 °C 30.12in /  1019.9hPa Calm   2mph /  3.2km/h 89% 0.00in /  0mm 39 W/m2
07:49 71.4 °F /  21.9 °C 68 °F /  20 °C 30.13in /  1020.2hPa WNW 0.3mph /  0.5km/h 6mph /  9.7km/h 89% 0.00in /  0mm 54 W/m2
07:54 71.4 °F /  21.9 °C 68 °F /  20 °C 30.12in /  1019.9hPa WNW 0.4mph /  0.6km/h 6mph /  9.7km/h 89% 0.00in /  0mm 54 W/m2
07:59 71.4 °F /  21.9 °C 68 °F /  20 °C 30.12in /  1019.9hPa WNW 0.4mph /  0.6km/h 6mph /  9.7km/h 89% 0.00in /  0mm 51 W/m2
08:00 71.4 °F /  21.9 °C 68 °F /  20 °C 30.12in /  1019.9hPa Calm   6mph /  9.7km/h 89% 0.00in /  0mm 23 W/m2
08:09 71.4 °F /  21.9 °C 68 °F /  20 °C 30.12in /  1019.9hPa Calm   1mph /  1.6km/h 89% 0.00in /  0mm 49 W/m2
08:14 71.4 °F /  21.9 °C 68 °F /  20 °C 30.13in /  1020.2hPa NNW 0.7mph /  1.1km/h 9mph /  14.5km/h 89% 0.00in /  0mm 62 W/m2
08:19 71.5 °F /  21.9 °C 68.1 °F /  20.1 °C 30.13in /  1020.2hPa North 0.1mph /  0.2km/h 9mph /  14.5km/h 89.1% 0.00in /  0mm 65 W/m2
08:24 71.5 °F /  21.9 °C 68.4 °F /  20.2 °C 30.12in /  1019.9hPa Calm   9mph /  14.5km/h 90% 0.00in /  0mm 58 W/m2
08:29 71.6 °F /  22 °C 68.5 °F /  20.3 °C 30.13in /  1020.2hPa Calm   9mph /  14.5km/h 90% 0.01in /  0.25mm 62 W/m2
08:34 71.7 °F /  22.1 °C 68.6 °F /  20.3 °C 30.13in /  1020.2hPa Calm   9mph /  14.5km/h 90.2% 0.01in /  0.25mm 77 W/m2
08:39 71.8 °F /  22.1 °C 69 °F /  20.6 °C 30.13in /  1020.2hPa Calm   1mph /  1.6km/h 91% 0.01in /  0.25mm 79 W/m2
08:44 71.9 °F /  22.2 °C 69.3 °F /  20.7 °C 30.13in /  1020.2hPa North 0.1mph /  0.2km/h 2mph /  3.2km/h 91.3% 0.01in /  0.25mm 65 W/m2
08:49 72 °F /  22.2 °C 69.6 °F /  20.9 °C 30.13in /  1020.2hPa North 0.1mph /  0.2km/h 3mph /  4.8km/h 92% 0.01in /  0.25mm 74 W/m2
08:54 72.1 °F /  22.3 °C 69.6 °F /  20.9 °C 30.13in /  1020.2hPa Calm   3mph /  4.8km/h 92% 0.01in /  0.25mm 74 W/m2
08:59 72.1 °F /  22.3 °C 69.6 °F /  20.9 °C 30.13in /  1020.2hPa Calm   3mph /  4.8km/h 92% 0.01in /  0.25mm 76 W/m2
09:04 72.1 °F /  22.3 °C 69.7 °F /  20.9 °C 30.12in /  1019.9hPa Calm   3mph /  4.8km/h 92% 0.01in /  0.25mm 93 W/m2
09:09 72.2 °F /  22.3 °C 69.7 °F /  20.9 °C 30.12in /  1019.9hPa Calm   1mph /  1.6km/h 92% 0.00in /  0mm 148 W/m2
09:14 72.5 °F /  22.5 °C 70 °F /  21.1 °C 30.13in /  1020.2hPa NNE 0.3mph /  0.5km/h 2mph /  3.2km/h 92% 0.00in /  0mm 160 W/m2
09:19 72.6 °F /  22.6 °C 70 °F /  21.1 °C 30.13in /  1020.2hPa Calm   2mph /  3.2km/h 91.5% 0.00in /  0mm 146 W/m2
09:24 72.7 °F /  22.6 °C 69.9 °F /  21.1 °C 30.13in /  1020.2hPa Calm   2mph /  3.2km/h 91% 0.00in /  0mm 90 W/m2
09:29 72.8 °F /  22.7 °C 69.9 °F /  21.1 °C 30.13in /  1020.2hPa Calm   2mph /  3.2km/h 90.5% 0.00in /  0mm 132 W/m2
09:34 72.9 °F /  22.7 °C 69.8 °F /  21 °C 30.13in /  1020.2hPa Calm   2mph /  3.2km/h 90% 0.00in /  0mm 404 W/m2
09:39 73.2 °F /  22.9 °C 70 °F /  21.1 °C 30.13in /  1020.2hPa NE 0.6mph /  1km/h 5mph /  8km/h 89.7% 0.00in /  0mm 271 W/m2
09:44 73.5 °F /  23.1 °C 69.7 °F /  20.9 °C 30.13in /  1020.2hPa NE 0.4mph /  0.6km/h 5mph /  8km/h 88% 0.00in /  0mm 246 W/m2
09:49 73.7 °F /  23.2 °C 69.2 °F /  20.7 °C 30.13in /  1020.2hPa ENE 0.6mph /  1km/h 5mph /  8km/h 85.8% 0.00in /  0mm 246 W/m2
09:54 74.1 °F /  23.4 °C 69.5 °F /  20.8 °C 30.13in /  1020.2hPa ENE 0.9mph /  1.4km/h 6mph /  9.7km/h 85.6% 0.00in /  0mm 229 W/m2
09:59 74.3 °F /  23.5 °C 69.2 °F /  20.7 °C 30.13in /  1020.2hPa ENE 0.9mph /  1.4km/h 6mph /  9.7km/h 84% 0.00in /  0mm 179 W/m2
10:04 74.5 °F /  23.6 °C 69 °F /  20.6 °C 30.13in /  1020.2hPa ENE 0.1mph /  0.2km/h 6mph /  9.7km/h 82.8% 0.00in /  0mm 216 W/m2
10:09 74.8 °F /  23.8 °C 69.1 °F /  20.6 °C 30.12in /  1019.9hPa Calm   2mph /  3.2km/h 82.5% 0.00in /  0mm 225 W/m2
10:14 75 °F /  23.9 °C 69.2 °F /  20.7 °C 30.13in /  1020.2hPa Calm   2mph /  3.2km/h 82% 0.00in /  0mm 281 W/m2
10:19 75.4 °F /  24.1 °C 69.4 °F /  20.8 °C 30.13in /  1020.2hPa ENE 1.1mph /  1.8km/h 5mph /  8km/h 81.7% 0.00in /  0mm 360 W/m2
10:24 75.9 °F /  24.4 °C 69.7 °F /  20.9 °C 30.13in /  1020.2hPa ENE 0.5mph /  0.8km/h 5mph /  8km/h 81% 0.00in /  0mm 360 W/m2
10:29 76.3 °F /  24.6 °C 69 °F /  20.6 °C 30.13in /  1020.2hPa ENE 0.8mph /  1.3km/h 5mph /  8km/h 78.1% 0.00in /  0mm 471 W/m2
10:34 76.7 °F /  24.8 °C 69.4 °F /  20.8 °C 30.13in /  1020.2hPa ENE 0.6mph /  1km/h 5mph /  8km/h 78.2% 0.00in /  0mm 471 W/m2
10:39 77.1 °F /  25.1 °C 69.4 °F /  20.8 °C 30.13in /  1020.2hPa ENE 0.9mph /  1.4km/h 5mph /  8km/h 77.2% 0.00in /  0mm 359 W/m2
10:44 77.5 °F /  25.3 °C 69.2 °F /  20.7 °C 30.13in /  1020.2hPa ENE 1.3mph /  2.1km/h 5mph /  8km/h 75.7% 0.00in /  0mm 564 W/m2
10:49 78 °F /  25.6 °C 69.7 °F /  20.9 °C 30.13in /  1020.2hPa ENE 0.7mph /  1.1km/h 5mph /  8km/h 75.5% 0.00in /  0mm 705 W/m2
10:54 78.7 °F /  25.9 °C 69.1 °F /  20.6 °C 30.13in /  1020.2hPa ENE 2mph /  3.2km/h 6mph /  9.7km/h 72.5% 0.00in /  0mm 603 W/m2
10:59 79.3 °F /  26.3 °C 69.2 °F /  20.7 °C 30.13in /  1020.2hPa ENE 1.7mph /  2.7km/h 6mph /  9.7km/h 71.3% 0.00in /  0mm 896 W/m2
11:04 79.8 °F /  26.6 °C 69.7 °F /  20.9 °C 30.13in /  1020.2hPa ENE 0.1mph /  0.2km/h 6mph /  9.7km/h 71.2% 0.00in /  0mm 896 W/m2
11:09 80.1 °F /  26.7 °C 69.4 °F /  20.8 °C 30.14in /  1020.5hPa East 2.1mph /  3.4km/h 5mph /  8km/h 69.9% 0.00in /  0mm 471 W/m2
11:14 80 °F /  26.7 °C 68.8 °F /  20.4 °C 30.14in /  1020.5hPa ENE 1.6mph /  2.6km/h 5mph /  8km/h 68.6% 0.00in /  0mm 343 W/m2
11:19 79.8 °F /  26.6 °C 69 °F /  20.6 °C 30.14in /  1020.5hPa ENE 0.5mph /  0.8km/h 5mph /  8km/h 69.7% 0.00in /  0mm 156 W/m2
11:24 79.4 °F /  26.3 °C 68.5 °F /  20.3 °C 30.14in /  1020.5hPa ENE 0.2mph /  0.3km/h 5mph /  8km/h 69.3% 0.00in /  0mm 144 W/m2
11:29 79 °F /  26.1 °C 68.2 °F /  20.1 °C 30.14in /  1020.5hPa East 1.8mph /  2.9km/h 6mph /  9.7km/h 69.7% 0.00in /  0mm 137 W/m2
11:34 78.7 °F /  25.9 °C 67.9 °F /  19.9 °C 30.13in /  1020.2hPa East 0.6mph /  1km/h 6mph /  9.7km/h 69.5% 0.00in /  0mm 139 W/m2
11:39 78.5 °F /  25.8 °C 67.9 °F /  19.9 °C 30.13in /  1020.2hPa East 0.7mph /  1.1km/h 4mph /  6.4km/h 70% 0.00in /  0mm 144 W/m2
11:43 78.4 °F /  25.8 °C 67.9 °F /  19.9 °C 30.13in /  1020.2hPa ENE 0.3mph /  0.5km/h 5mph /  8km/h 70.2% 0.00in /  0mm 113 W/m2
12:09 77.8 °F /  25.4 °C 68.2 °F /  20.1 °C 30.13in /  1020.2hPa East 0.1mph /  0.2km/h 3mph /  4.8km/h 72.2% 0.00in /  0mm 100 W/m2
12:14 77.8 °F /  25.4 °C 68 °F /  20 °C 30.13in /  1020.2hPa East 0.3mph /  0.5km/h 3mph /  4.8km/h 71.9% 0.00in /  0mm 95 W/m2
12:19 77.8 °F /  25.4 °C 68.2 °F /  20.1 °C 30.13in /  1020.2hPa Calm   3mph /  4.8km/h 72.4% 0.00in /  0mm 93 W/m2
12:24 77.8 °F /  25.4 °C 68.8 °F /  20.4 °C 30.13in /  1020.2hPa Calm   3mph /  4.8km/h 73.7% 0.00in /  0mm 93 W/m2
12:29 77.8 °F /  25.4 °C 68.4 °F /  20.2 °C 30.13in /  1020.2hPa Calm   3mph /  4.8km/h 72.9% 0.00in /  0mm 100 W/m2
12:34 77.8 °F /  25.4 °C 68.5 °F /  20.3 °C 30.13in /  1020.2hPa East 0.1mph /  0.2km/h 3mph /  4.8km/h 73.2% 0.00in /  0mm 104 W/m2
12:39 77.8 °F /  25.4 °C 68.5 °F /  20.3 °C 30.12in /  1019.9hPa Calm   1mph /  1.6km/h 73.2% 0.00in /  0mm 120 W/m2
12:44 77.9 °F /  25.5 °C 68.5 °F /  20.3 °C 30.12in /  1019.9hPa Calm   1mph /  1.6km/h 73% 0.00in /  0mm 127 W/m2
12:49 77.9 °F /  25.5 °C 68.7 °F /  20.4 °C 30.12in /  1019.9hPa Calm   1mph /  1.6km/h 73.2% 0.00in /  0mm 113 W/m2
12:54 78 °F /  25.6 °C 69 °F /  20.6 °C 30.12in /  1019.9hPa ENE 0.6mph /  1km/h 4mph /  6.4km/h 73.8% 0.00in /  0mm 111 W/m2
12:59 78.1 °F /  25.6 °C 68.9 °F /  20.5 °C 30.12in /  1019.9hPa Calm   4mph /  6.4km/h 73.2% 0.00in /  0mm 95 W/m2
13:04 78.2 °F /  25.7 °C 69 °F /  20.6 °C 30.12in /  1019.9hPa Calm   4mph /  6.4km/h 73.4% 0.00in /  0mm 93 W/m2
13:09 78.1 °F /  25.6 °C 68.8 °F /  20.4 °C 30.12in /  1019.9hPa Calm   1mph /  1.6km/h 73.2% 0.00in /  0mm 79 W/m2
13:14 78.1 °F /  25.6 °C 68.8 °F /  20.4 °C 30.12in /  1019.9hPa Calm   1mph /  1.6km/h 73.1% 0.00in /  0mm 74 W/m2
13:19 78.1 °F /  25.6 °C 68.8 °F /  20.4 °C 30.12in /  1019.9hPa Calm   1mph /  1.6km/h 73.3% 0.00in /  0mm 67 W/m2
13:24 78 °F /  25.6 °C 68.7 °F /  20.4 °C 30.12in /  1019.9hPa Calm   1mph /  1.6km/h 73.2% 0.00in /  0mm 65 W/m2
13:29 78 °F /  25.6 °C 69 °F /  20.6 °C 30.12in /  1019.9hPa Calm   1mph /  1.6km/h 73.8% 0.00in /  0mm 53 W/m2
13:34 78 °F /  25.6 °C 69 °F /  20.6 °C 30.12in /  1019.9hPa Calm   1mph /  1.6km/h 74% 0.00in /  0mm 46 W/m2
13:39 77.9 °F /  25.5 °C 69.2 °F /  20.7 °C 30.11in /  1019.5hPa Calm     74.8% 0.00in /  0mm 47 W/m2
13:44 77.9 °F /  25.5 °C 69.5 °F /  20.8 °C 30.11in /  1019.5hPa ENE 0.7mph /  1.1km/h 4mph /  6.4km/h 75.4% 0.00in /  0mm 51 W/m2
13:49 77.7 °F /  25.4 °C 69.5 °F /  20.8 °C 30.11in /  1019.5hPa ENE 0.1mph /  0.2km/h 4mph /  6.4km/h 76% 0.00in /  0mm 56 W/m2
13:54 77.4 °F /  25.2 °C 70 °F /  21.1 °C 30.11in /  1019.5hPa ENE 0.2mph /  0.3km/h 4mph /  6.4km/h 77.8% 0.00in /  0mm 63 W/m2
13:59 76.9 °F /  24.9 °C 69.7 °F /  20.9 °C 30.11in /  1019.5hPa NNE 1.8mph /  2.9km/h 7mph /  11.3km/h 78.3% 0.00in /  0mm 67 W/m2
14:04 76.4 °F /  24.7 °C 69.6 °F /  20.9 °C 30.11in /  1019.5hPa NE 0.1mph /  0.2km/h 7mph /  11.3km/h 79.6% 0.00in /  0mm 72 W/m2
14:09 76.1 °F /  24.5 °C 69.8 °F /  21 °C 30.11in /  1019.5hPa Calm   2mph /  3.2km/h 81.1% 0.00in /  0mm 83 W/m2
14:14 75.8 °F /  24.3 °C 69.7 °F /  20.9 °C 30.11in /  1019.5hPa Calm   2mph /  3.2km/h 81.6% 0.00in /  0mm 95 W/m2
14:19 75.7 °F /  24.3 °C 69.8 °F /  21 °C 30.11in /  1019.5hPa Calm   2mph /  3.2km/h 82.2% 0.00in /  0mm 105 W/m2
14:24 75.7 °F /  24.3 °C 70.3 °F /  21.3 °C 30.11in /  1019.5hPa Calm   2mph /  3.2km/h 83.3% 0.00in /  0mm 148 W/m2
14:29 75.7 °F /  24.3 °C 70.6 °F /  21.4 °C 30.11in /  1019.5hPa Calm   2mph /  3.2km/h 84% 0.00in /  0mm 174 W/m2
14:34 75.9 °F /  24.4 °C 70.8 °F /  21.6 °C 30.11in /  1019.5hPa Calm   2mph /  3.2km/h 84% 0.00in /  0mm 258 W/m2
14:39 76.3 °F /  24.6 °C 71.2 °F /  21.8 °C 30.11in /  1019.5hPa Calm     84.5% 0.00in /  0mm 258 W/m2
14:44 76.5 °F /  24.7 °C 71 °F /  21.7 °C 30.11in /  1019.5hPa Calm     83.1% 0.00in /  0mm 174 W/m2
14:49 76.7 °F /  24.8 °C 70.9 °F /  21.6 °C 30.10in /  1019.2hPa Calm     82.3% 0.00in /  0mm 264 W/m2
14:54 77.1 °F /  25.1 °C 71.1 °F /  21.7 °C 30.10in /  1019.2hPa Calm     81.8% 0.00in /  0mm 343 W/m2
14:59 77.4 °F /  25.2 °C 70.9 °F /  21.6 °C 30.10in /  1019.2hPa Calm     80.5% 0.00in /  0mm 213 W/m2
15:04 77.6 °F /  25.3 °C 70.3 °F /  21.3 °C 30.10in /  1019.2hPa Calm     78.4% 0.00in /  0mm 285 W/m2
15:09 77.9 °F /  25.5 °C 70.7 °F /  21.5 °C 30.10in /  1019.2hPa Calm     78.4% 0.00in /  0mm 267 W/m2
15:14 78.2 °F /  25.7 °C 70.1 °F /  21.2 °C 30.10in /  1019.2hPa Calm     76.2% 0.00in /  0mm 490 W/m2
15:19 78.6 °F /  25.9 °C 70.6 °F /  21.4 °C 30.10in /  1019.2hPa Calm     76.5% 0.00in /  0mm 490 W/m2
15:24 79 °F /  26.1 °C 70.5 °F /  21.4 °C 30.10in /  1019.2hPa NE 0.4mph /  0.6km/h 3mph /  4.8km/h 75.3% 0.00in /  0mm 318 W/m2
15:29 79.1 °F /  26.2 °C 70.1 °F /  21.2 °C 30.10in /  1019.2hPa NE 0.2mph /  0.3km/h 3mph /  4.8km/h 73.9% 0.00in /  0mm 239 W/m2
15:34 79.3 °F /  26.3 °C 70.5 °F /  21.4 °C 30.10in /  1019.2hPa NE 0.1mph /  0.2km/h 3mph /  4.8km/h 74.7% 0.00in /  0mm 345 W/m2
15:39 79.4 °F /  26.3 °C 70.5 °F /  21.4 °C 30.10in /  1019.2hPa NE 0.1mph /  0.2km/h 2mph /  3.2km/h 74.1% 0.00in /  0mm 360 W/m2
15:44 79.8 °F /  26.6 °C 70.7 °F /  21.5 °C 30.10in /  1019.2hPa NE 0.3mph /  0.5km/h 4mph /  6.4km/h 73.8% 0.00in /  0mm 777 W/m2
15:49 80.3 °F /  26.8 °C 70.5 °F /  21.4 °C 30.09in /  1018.8hPa Calm   4mph /  6.4km/h 72.3% 0.00in /  0mm 777 W/m2
15:54 80.6 °F /  27 °C 70.3 °F /  21.3 °C 30.09in /  1018.8hPa Calm   4mph /  6.4km/h 71.1% 0.00in /  0mm 239 W/m2
15:59 80.7 °F /  27.1 °C 70.5 °F /  21.4 °C 30.09in /  1018.8hPa ENE 0.9mph /  1.4km/h 4mph /  6.4km/h 71.3% 0.00in /  0mm 209 W/m2
16:04 80.7 °F /  27.1 °C 70.4 °F /  21.3 °C 30.09in /  1018.8hPa Calm     71% 0.00in /  0mm 199 W/m2
16:09 80.7 °F /  27.1 °C 70.4 °F /  21.3 °C 30.09in /  1018.8hPa NE 1.8mph /  2.9km/h 8mph /  12.9km/h 71% 0.00in /  0mm 283 W/m2
16:14 80.7 °F /  27.1 °C 70.5 °F /  21.4 °C 30.09in /  1018.8hPa NE 1.1mph /  1.8km/h 9mph /  14.5km/h 71.3% 0.00in /  0mm 267 W/m2
16:19 80.8 °F /  27.1 °C 70.6 °F /  21.4 °C 30.09in /  1018.8hPa ENE 2.4mph /  3.9km/h 9mph /  14.5km/h 71.3% 0.00in /  0mm 209 W/m2
16:24 80.7 °F /  27.1 °C 70.8 °F /  21.6 °C 30.09in /  1018.8hPa NE 0.9mph /  1.4km/h 9mph /  14.5km/h 72.1% 0.00in /  0mm 93 W/m2
16:29 80.4 °F /  26.9 °C 70.6 °F /  21.4 °C 30.09in /  1018.8hPa ENE 1.1mph /  1.8km/h 9mph /  14.5km/h 72% 0.00in /  0mm 95 W/m2
16:34 80.1 °F /  26.7 °C 70.6 °F /  21.4 °C 30.09in /  1018.8hPa ENE 1.4mph /  2.3km/h 9mph /  14.5km/h 72.9% 0.00in /  0mm 76 W/m2
16:39 79.8 °F /  26.6 °C 70.5 °F /  21.4 °C 30.10in /  1019.2hPa ENE 0.8mph /  1.3km/h 5mph /  8km/h 73.2% 0.00in /  0mm 63 W/m2
16:44 79.5 °F /  26.4 °C 70.3 °F /  21.3 °C 30.10in /  1019.2hPa ENE 0.6mph /  1km/h 5mph /  8km/h 73.5% 0.00in /  0mm 65 W/m2
16:49 79.3 °F /  26.3 °C 70.3 °F /  21.3 °C 30.10in /  1019.2hPa ENE 0.1mph /  0.2km/h 5mph /  8km/h 74.1% 0.00in /  0mm 62 W/m2
16:54 78.9 °F /  26.1 °C 70.4 °F /  21.3 °C 30.10in /  1019.2hPa ENE 0.2mph /  0.3km/h 5mph /  8km/h 75.2% 0.00in /  0mm 81 W/m2
16:59 78.5 °F /  25.8 °C 70.4 °F /  21.3 °C 30.10in /  1019.2hPa ESE 1.5mph /  2.4km/h 5mph /  8km/h 76.2% 0.00in /  0mm 77 W/m2
17:04 78 °F /  25.6 °C 70.6 °F /  21.4 °C 30.10in /  1019.2hPa ESE 0.4mph /  0.6km/h 5mph /  8km/h 77.9% 0.00in /  0mm 62 W/m2
17:09 77.5 °F /  25.3 °C 70.5 °F /  21.4 °C 30.10in /  1019.2hPa Calm   3mph /  4.8km/h 79% 0.00in /  0mm 53 W/m2
17:14 77.2 °F /  25.1 °C 70.5 °F /  21.4 °C 30.10in /  1019.2hPa ESE 0.1mph /  0.2km/h 3mph /  4.8km/h 80% 0.00in /  0mm 69 W/m2
17:19 76.9 °F /  24.9 °C 70.6 °F /  21.4 °C 30.10in /  1019.2hPa East 0.1mph /  0.2km/h 3mph /  4.8km/h 81% 0.00in /  0mm 67 W/m2
17:24 76.7 °F /  24.8 °C 70.4 °F /  21.3 °C 30.10in /  1019.2hPa East 0.1mph /  0.2km/h 3mph /  4.8km/h 81.1% 0.00in /  0mm 49 W/m2
17:29 76.5 °F /  24.7 °C 70.6 °F /  21.4 °C 30.10in /  1019.2hPa East 0.1mph /  0.2km/h 3mph /  4.8km/h 82% 0.00in /  0mm 63 W/m2
17:34 76.4 °F /  24.7 °C 70.5 °F /  21.4 °C 30.10in /  1019.2hPa Calm   3mph /  4.8km/h 82% 0.00in /  0mm 63 W/m2
17:39 76.4 °F /  24.7 °C 70.5 °F /  21.4 °C 30.10in /  1019.2hPa Calm     82% 0.00in /  0mm 63 W/m2
17:44 76.3 °F /  24.6 °C 70.6 °F /  21.4 °C 30.10in /  1019.2hPa Calm   1mph /  1.6km/h 82.5% 0.00in /  0mm 63 W/m2
17:49 76.3 °F /  24.6 °C 70.4 °F /  21.3 °C 30.10in /  1019.2hPa East 0.8mph /  1.3km/h 4mph /  6.4km/h 82.2% 0.00in /  0mm 65 W/m2
17:54 76.2 °F /  24.6 °C 70.3 °F /  21.3 °C 30.10in /  1019.2hPa Calm   4mph /  6.4km/h 82% 0.00in /  0mm 56 W/m2
17:59 76.1 °F /  24.5 °C 70 °F /  21.1 °C 30.11in /  1019.5hPa ENE 0.3mph /  0.5km/h 4mph /  6.4km/h 81.4% 0.00in /  0mm 44 W/m2
18:04 76 °F /  24.4 °C 69.8 °F /  21 °C 30.11in /  1019.5hPa ENE 0.4mph /  0.6km/h 4mph /  6.4km/h 81.1% 0.00in /  0mm 44 W/m2
18:09 76 °F /  24.4 °C 69.9 °F /  21.1 °C 30.11in /  1019.5hPa ENE 0.8mph /  1.3km/h 4mph /  6.4km/h 81.5% 0.00in /  0mm 44 W/m2
18:14 75.9 °F /  24.4 °C 70 °F /  21.1 °C 30.10in /  1019.2hPa ENE 0.4mph /  0.6km/h 4mph /  6.4km/h 82% 0.00in /  0mm 49 W/m2
18:19 75.8 °F /  24.3 °C 69.9 °F /  21.1 °C 30.10in /  1019.2hPa ENE 0.1mph /  0.2km/h 4mph /  6.4km/h 82% 0.00in /  0mm 49 W/m2
18:24 75.8 °F /  24.3 °C 69.9 °F /  21.1 °C 30.10in /  1019.2hPa ENE 0.2mph /  0.3km/h 4mph /  6.4km/h 82% 0.00in /  0mm 47 W/m2
18:29 75.8 °F /  24.3 °C 70.1 °F /  21.2 °C 30.09in /  1018.8hPa ENE 0.4mph /  0.6km/h 4mph /  6.4km/h 82.5% 0.00in /  0mm 47 W/m2
18:34 75.7 °F /  24.3 °C 70.2 °F /  21.2 °C 30.09in /  1018.8hPa Calm   4mph /  6.4km/h 83% 0.00in /  0mm 47 W/m2
18:39 75.7 °F /  24.3 °C 70.2 °F /  21.2 °C 30.10in /  1019.2hPa ENE 0.2mph /  0.3km/h 2mph /  3.2km/h 83% 0.00in /  0mm 46 W/m2
18:44 75.7 °F /  24.3 °C 70.2 °F /  21.2 °C 30.10in /  1019.2hPa Calm   2mph /  3.2km/h 83% 0.00in /  0mm 42 W/m2
18:49 75.6 °F /  24.2 °C 70.1 °F /  21.2 °C 30.10in /  1019.2hPa Calm   2mph /  3.2km/h 83% 0.00in /  0mm 40 W/m2
18:54 75.6 °F /  24.2 °C 70.1 °F /  21.2 °C 30.10in /  1019.2hPa Calm   2mph /  3.2km/h 83% 0.00in /  0mm 37 W/m2
18:59 75.6 °F /  24.2 °C 70.1 °F /  21.2 °C 30.10in /  1019.2hPa Calm   2mph /  3.2km/h 83% 0.00in /  0mm 35 W/m2
19:04 75.6 °F /  24.2 °C 70.1 °F /  21.2 °C 30.10in /  1019.2hPa Calm   2mph /  3.2km/h 83% 0.00in /  0mm 37 W/m2
19:09 75.7 °F /  24.3 °C 70.1 °F /  21.2 °C 30.11in /  1019.5hPa Calm     83% 0.00in /  0mm 32 W/m2
19:14 75.7 °F /  24.3 °C 70.2 °F /  21.2 °C 30.11in /  1019.5hPa Calm     83% 0.00in /  0mm 30 W/m2
19:19 75.6 °F /  24.2 °C 70.2 °F /  21.2 °C 30.11in /  1019.5hPa Calm     83.2% 0.00in /  0mm 25 W/m2
19:24 75.6 °F /  24.2 °C 70.1 °F /  21.2 °C 30.11in /  1019.5hPa Calm     83.1% 0.00in /  0mm 18 W/m2
19:29 75.6 °F /  24.2 °C 70.1 °F /  21.2 °C 30.11in /  1019.5hPa Calm     83% 0.00in /  0mm 14 W/m2
19:34 75.5 °F /  24.2 °C 70 °F /  21.1 °C 30.11in /  1019.5hPa Calm     83% 0.00in /  0mm 11 W/m2
19:39 75.5 °F /  24.2 °C 70.2 °F /  21.2 °C 30.11in /  1019.5hPa Calm     83.6% 0.00in /  0mm 11 W/m2
19:44 75.4 °F /  24.1 °C 70.1 °F /  21.2 °C 30.11in /  1019.5hPa Calm     83.6% 0.00in /  0mm 11 W/m2
19:49 75.3 °F /  24.1 °C 69.8 °F /  21 °C 30.11in /  1019.5hPa Calm     83% 0.00in /  0mm 7 W/m2
19:54 75.3 °F /  24.1 °C 69.8 °F /  21 °C 30.11in /  1019.5hPa Calm     83% 0.00in /  0mm 5 W/m2
19:59 75.2 °F /  24 °C 69.7 °F /  20.9 °C 30.11in /  1019.5hPa Calm     83% 0.00in /  0mm 0 W/m2
20:00 75.2 °F /  24 °C 69.7 °F /  20.9 °C 30.11in /  1019.5hPa Calm     83% 0.00in /  0mm 0 W/m2
20:09 75.1 °F /  23.9 °C 69.8 °F /  21 °C 30.12in /  1019.9hPa Calm     83.7% 0.00in /  0mm 0 W/m2
20:14 75 °F /  23.9 °C 69.8 °F /  21 °C 30.11in /  1019.5hPa Calm     84% 0.00in /  0mm 0 W/m2
20:19 74.9 °F /  23.8 °C 69.8 °F /  21 °C 30.11in /  1019.5hPa Calm     84% 0.00in /  0mm 0 W/m2
20:24 74.9 °F /  23.8 °C 69.7 °F /  20.9 °C 30.12in /  1019.9hPa Calm     84% 0.00in /  0mm 0 W/m2
20:29 74.8 °F /  23.8 °C 69.7 °F /  20.9 °C 30.12in /  1019.9hPa Calm     84% 0.00in /  0mm 0 W/m2
20:34 74.8 °F /  23.8 °C 69.6 °F /  20.9 °C 30.12in /  1019.9hPa Calm     84% 0.00in /  0mm 0 W/m2
20:39 74.7 °F /  23.7 °C 69.8 °F /  21 °C 30.12in /  1019.9hPa Calm     84.7% 0.00in /  0mm 0 W/m2
20:44 74.7 °F /  23.7 °C 69.9 °F /  21.1 °C 30.13in /  1020.2hPa Calm     85% 0.00in /  0mm 0 W/m2
20:49 74.7 °F /  23.7 °C 69.9 °F /  21.1 °C 30.13in /  1020.2hPa Calm     85% 0.00in /  0mm 0 W/m2
20:54 74.6 °F /  23.7 °C 69.8 °F /  21 °C 30.13in /  1020.2hPa Calm     85% 0.00in /  0mm 0 W/m2
20:59 74.6 °F /  23.7 °C 69.8 °F /  21 °C 30.13in /  1020.2hPa Calm     85% 0.00in /  0mm 0 W/m2
21:04 74.6 °F /  23.7 °C 69.8 °F /  21 °C 30.13in /  1020.2hPa Calm     85% 0.00in /  0mm 0 W/m2
21:09 74.6 °F /  23.7 °C 69.8 °F /  21 °C 30.13in /  1020.2hPa Calm     85% 0.00in /  0mm 0 W/m2
21:14 74.6 °F /  23.7 °C 69.8 °F /  21 °C 30.13in /  1020.2hPa Calm     85% 0.00in /  0mm 0 W/m2
21:19 74.6 °F /  23.7 °C 69.8 °F /  21 °C 30.13in /  1020.2hPa Calm     85% 0.00in /  0mm 0 W/m2
21:24 74.5 °F /  23.6 °C 69.7 °F /  20.9 °C 30.14in /  1020.5hPa Calm     85% 0.00in /  0mm 0 W/m2
21:29 74.5 °F /  23.6 °C 69.7 °F /  20.9 °C 30.14in /  1020.5hPa Calm     85% 0.00in /  0mm 0 W/m2
21:34 74.4 °F /  23.6 °C 69.8 °F /  21 °C 30.13in /  1020.2hPa Calm     85.6% 0.00in /  0mm 0 W/m2
21:39 74.3 °F /  23.5 °C 69.8 °F /  21 °C 30.13in /  1020.2hPa Calm     86% 0.00in /  0mm 0 W/m2
21:44 74.2 °F /  23.4 °C 69.7 °F /  20.9 °C 30.13in /  1020.2hPa Calm     86% 0.00in /  0mm 0 W/m2
21:49 74 °F /  23.3 °C 69.6 °F /  20.9 °C 30.13in /  1020.2hPa Calm     86% 0.00in /  0mm 0 W/m2
21:54 73.9 °F /  23.3 °C 69.5 °F /  20.8 °C 30.12in /  1019.9hPa Calm     86% 0.00in /  0mm 0 W/m2
21:59 73.8 °F /  23.2 °C 69.4 °F /  20.8 °C 30.13in /  1020.2hPa Calm     86% 0.00in /  0mm 0 W/m2
22:04 73.7 °F /  23.2 °C 69.4 °F /  20.8 °C 30.13in /  1020.2hPa Calm     86.4% 0.00in /  0mm 0 W/m2
22:09 73.7 °F /  23.2 °C 69.6 °F /  20.9 °C 30.12in /  1019.9hPa Calm     87% 0.00in /  0mm 0 W/m2
22:14 73.6 °F /  23.1 °C 69.5 °F /  20.8 °C 30.13in /  1020.2hPa Calm     87% 0.00in /  0mm 0 W/m2
22:19 73.6 °F /  23.1 °C 69.5 °F /  20.8 °C 30.12in /  1019.9hPa Calm     87% 0.00in /  0mm 0 W/m2
22:24 73.5 °F /  23.1 °C 69.6 °F /  20.9 °C 30.13in /  1020.2hPa Calm     87.5% 0.00in /  0mm 0 W/m2
22:29 73.5 °F /  23.1 °C 69.7 °F /  20.9 °C 30.13in /  1020.2hPa Calm     88% 0.00in /  0mm 0 W/m2
22:34 73.4 °F /  23 °C 69.6 °F /  20.9 °C 30.13in /  1020.2hPa Calm     88% 0.00in /  0mm 0 W/m2
22:39 73.3 °F /  22.9 °C 69.5 °F /  20.8 °C 30.13in /  1020.2hPa Calm     88% 0.00in /  0mm 0 W/m2
22:44 73.2 °F /  22.9 °C 69.4 °F /  20.8 °C 30.13in /  1020.2hPa Calm     88% 0.00in /  0mm 0 W/m2
22:49 73.1 °F /  22.8 °C 69.4 °F /  20.8 °C 30.13in /  1020.2hPa Calm     88.3% 0.00in /  0mm 0 W/m2
22:54 73 °F /  22.8 °C 69.6 °F /  20.9 °C 30.13in /  1020.2hPa Calm     89% 0.00in /  0mm 0 W/m2
22:59 73 °F /  22.8 °C 69.5 °F /  20.8 °C 30.13in /  1020.2hPa Calm     89% 0.00in /  0mm 0 W/m2
23:04 72.8 °F /  22.7 °C 69.4 °F /  20.8 °C 30.12in /  1019.9hPa Calm     89% 0.00in /  0mm 0 W/m2
23:09 72.7 °F /  22.6 °C 69.3 °F /  20.7 °C 30.12in /  1019.9hPa Calm     89% 0.00in /  0mm 0 W/m2
23:14 72.6 °F /  22.6 °C 69.2 °F /  20.7 °C 30.12in /  1019.9hPa Calm     89% 0.00in /  0mm 0 W/m2
23:19 72.5 °F /  22.5 °C 69.1 °F /  20.6 °C 30.12in /  1019.9hPa Calm     89% 0.00in /  0mm 0 W/m2
23:24 72.4 °F /  22.4 °C 69 °F /  20.6 °C 30.13in /  1020.2hPa Calm     89% 0.00in /  0mm 0 W/m2
23:29 72.3 °F /  22.4 °C 68.9 °F /  20.5 °C 30.13in /  1020.2hPa Calm     89% 0.00in /  0mm 0 W/m2
23:34 72.2 °F /  22.3 °C 68.9 °F /  20.5 °C 30.13in /  1020.2hPa Calm     89.5% 0.00in /  0mm 0 W/m2
23:39 72.1 °F /  22.3 °C 69 °F /  20.6 °C 30.13in /  1020.2hPa Calm     90% 0.00in /  0mm 0 W/m2
23:44 71.9 °F /  22.2 °C 68.9 °F /  20.5 °C 30.13in /  1020.2hPa Calm     90% 0.00in /  0mm 0 W/m2
23:49 71.8 °F /  22.1 °C 68.7 °F /  20.4 °C 30.13in /  1020.2hPa Calm     90% 0.00in /  0mm 0 W/m2
23:54 71.7 °F /  22.1 °C 68.7 °F /  20.4 °C 30.13in /  1020.2hPa Calm     90% 0.00in /  0mm 0 W/m2
23:59 71.6 °F /  22 °C 68.9 °F /  20.5 °C 30.14in /  1020.5hPa Calm     91% 0.00in /  0mm 0 W/m2
Hartford County Weather
Compliments of Weather Underground - 4 mb